Seville, Florida
Current Conditions -  °F | °C
As of 6:50 AM on Tuesday 27 Jan 2015 (Local Time) from KOMN Reporting Station
Clear Clear  
Wind Chill: 39°   Ceiling: Unl
Heat Index: 39°   Visibility: 10mi
Dew Point: 34°   Wind: 3mph
Humidity: 81%   Direction: 250°WSW
Pressure: 30"   Gusts: NA
Location:  29.32°N, 81.49°W
Report Text: KOMN 271150Z 25003KT 10SM SKC 04/01 A3000 RMK FIRST
Loading
Personal Weather Stations






























Interactive Weather Map New forecast layout! Learn more

10-Day Weather Forecast

Advertisements
Track Severe Weather on mobile